Aérodrome :
LOGIN :

S'inscrire | Disclaimer

   EN    FR    IT 

 










Légende :    VFR   VFR Marginal   IFR   IFR Intensif   IFR Très Intensif
Visi : 
Plafond : 
>= 8 km
>= 3000ft
5 à 8 km
1000 à 3000 ft
1500m à 5 km
500 à 1000 ft
800 à 1500m
200 à 500 ft
< 800m
< 200 ft
Symboles :   Orages  Brouillard  Fortes neiges  Fortes précipitations  Vent > 20 kt
SIGMETs :   Divers  Orages  Givrage  Turbulence  Onde Orograph.  Cendres Volcan.






- Altitude de l'aérodrome : 256 ft
- Code IATA : CFR


LFRK - Caen

DERNIER METAR :
  • 301700Z AUTO 22005KT 190V250 CAVOK 17/11 Q1014 TEMPO 4000 SHRA BKN025CB

METARs EXPIRÉS :
  • 301630Z AUTO 25006KT 220V290 9999 ///TCU 17/11 Q1014 TEMPO 4000 SHRA BKN025CB
  • 301600Z AUTO 24007KT 9999 FEW043/// BKN100/// ///CB 16/13 Q1014 TEMPO VRB15G30KT 4000 SHRA
  • 301530Z AUTO 21007KT 7000 RA FEW039/// OVC060/// //////CB 12/10 Q1014 TEMPO VRB15G30KT 4000 SHRA
  • 301500Z AUTO 20006KT 180V260 9999 +TSRA FEW018/// BKN037/// BKN046/// ///CB 13/10 Q1014 TEMPO VRB15G30KT 2000 TSRAGS
  • 301430Z AUTO 30005KT 250V360 9999 FEW048/// BKN058/// OVC072/// ///CB 15/12 Q1014 TEMPO VRB15G30KT 2000 TSRAGS

TAF TAF LFRK
Valide du 30 à 15h jusqu'au 01 à 00h UTC


301400Z 3015/3024 29006KT 9999 SCT035
TEMPO 3015/3021 4000 SHRA BKN025CB
PROB40
TEMPO 3015/3017 VRB15G30KT 2000 TSRAGS BKN015CB
Météo : +33 2 31 26 68 11



MET'MAP, la Météo Aéronautique d'un coup d'oeil ! - Copyright ORBIFLY Décembre 2007 - Disclaimer

ORBIFLY MET'MAP TEAM :

Programmation & Développement : Alexandra Zaïnal
Sur une idée originale de : Baudouin d'Aumeries
Soutien technique & logistique : Manuel Goepfert
Assistance : Marc-Olivier Méhu




SOURCES & CREDITS :

   NOAA